createdAt,value
2018-04-15T00:01:05.046Z,10.70
2018-04-15T00:03:32.575Z,10.60
2018-04-15T00:06:00.155Z,10.60
2018-04-15T00:08:27.688Z,10.50
2018-04-15T00:10:55.235Z,10.30
2018-04-15T00:13:23.543Z,10.10
2018-04-15T00:15:51.084Z,10.00
2018-04-15T00:18:18.637Z,10.00
2018-04-15T00:20:46.847Z,10.00
2018-04-15T00:23:16.544Z,9.90
2018-04-15T00:25:44.054Z,9.80
2018-04-15T00:28:11.609Z,9.90
2018-04-15T00:30:39.228Z,9.90
2018-04-15T00:33:06.756Z,9.90
2018-04-15T00:35:34.302Z,9.90
2018-04-15T00:38:02.611Z,10.00
2018-04-15T00:40:30.164Z,9.90
2018-04-15T00:42:58.209Z,9.90
2018-04-15T00:45:26.520Z,9.80
2018-04-15T00:47:54.047Z,9.80
2018-04-15T00:50:22.758Z,9.70
2018-04-15T00:52:50.302Z,9.70
2018-04-15T00:55:17.816Z,9.70
2018-04-15T00:57:45.355Z,9.60
2018-04-15T01:00:14.291Z,9.60
2018-04-15T01:02:42.579Z,9.50
2018-04-15T01:05:11.223Z,9.50
2018-04-15T01:07:38.734Z,9.50
2018-04-15T01:10:06.301Z,9.40
2018-04-15T01:12:33.855Z,9.40
2018-04-15T01:15:01.379Z,9.40
2018-04-15T01:17:28.895Z,9.40
2018-04-15T01:19:56.460Z,9.30
2018-04-15T01:22:23.983Z,9.20
2018-04-15T01:24:51.503Z,9.20
2018-04-15T01:27:19.525Z,9.10
2018-04-15T01:29:47.044Z,9.10
2018-04-15T01:32:16.374Z,9.10
2018-04-15T01:34:43.922Z,9.10
2018-04-15T01:37:11.444Z,9.10
2018-04-15T01:39:38.962Z,9.00
2018-04-15T01:42:06.499Z,9.00
2018-04-15T01:44:34.032Z,9.00
2018-04-15T01:47:01.570Z,9.00
2018-04-15T01:49:30.640Z,8.90
2018-04-15T01:51:58.943Z,8.90
2018-04-15T01:54:26.469Z,8.90
2018-04-15T01:56:54.409Z,8.80
2018-04-15T01:59:21.948Z,8.80
2018-04-15T02:01:50.782Z,8.90
2018-04-15T02:04:18.314Z,8.80
2018-04-15T02:06:46.598Z,8.80
2018-04-15T02:09:26.056Z,8.80
2018-04-15T02:21:53.637Z,8.80
2018-04-15T02:24:21.946Z,8.30
2018-04-15T02:26:49.494Z,8.30
2018-04-15T02:29:17.415Z,8.20
2018-04-15T02:31:44.971Z,8.30
2018-04-15T02:34:12.514Z,8.30
2018-04-15T02:36:40.083Z,8.40
2018-04-15T02:39:07.619Z,8.40
2018-04-15T02:41:35.162Z,8.40
2018-04-15T02:44:02.737Z,8.40
2018-04-15T02:46:30.285Z,8.40
2018-04-15T02:48:57.806Z,8.40
2018-04-15T02:51:26.593Z,8.50
2018-04-15T02:53:54.110Z,8.50
2018-04-15T02:56:21.628Z,8.40
2018-04-15T02:58:49.944Z,8.30
2018-04-15T03:01:17.459Z,8.20
2018-04-15T03:03:46.521Z,8.10
2018-04-15T03:06:25.912Z,8.10
2018-04-15T03:11:40.906Z,8.10
2018-04-15T03:14:08.422Z,7.90
2018-04-15T03:16:35.937Z,8.00
2018-04-15T03:19:03.497Z,8.00
2018-04-15T03:21:31.063Z,8.00
2018-04-15T03:23:58.608Z,8.00
2018-04-15T03:26:26.179Z,8.00
2018-04-15T03:28:54.468Z,8.00
2018-04-15T03:31:22.007Z,8.00
2018-04-15T03:33:50.063Z,8.00
2018-04-15T03:36:17.580Z,8.00
2018-04-15T03:38:45.880Z,8.10
2018-04-15T03:41:26.361Z,8.10
2018-04-15T03:52:33.971Z,8.00
2018-04-15T03:55:02.252Z,7.30
2018-04-15T03:57:30.535Z,7.20
2018-04-15T03:59:58.882Z,7.10
2018-04-15T04:02:26.398Z,7.10
2018-04-15T04:04:54.516Z,7.20
2018-04-15T04:07:23.035Z,7.10
2018-04-15T04:09:50.608Z,7.10
2018-04-15T04:12:18.126Z,7.20
2018-04-15T04:14:46.252Z,7.10
2018-04-15T04:17:20.355Z,7.20
2018-04-15T04:22:47.482Z,7.20
2018-04-15T04:25:30.523Z,7.20
2018-04-15T04:27:58.075Z,7.20
2018-04-15T04:30:25.599Z,7.20
2018-04-15T04:32:53.128Z,7.30
2018-04-15T04:35:20.774Z,7.30
2018-04-15T04:37:48.304Z,7.40
2018-04-15T04:40:16.404Z,7.50
2018-04-15T04:42:43.955Z,7.50
2018-04-15T04:45:11.481Z,7.50
2018-04-15T04:47:39.767Z,7.30
2018-04-15T04:50:07.332Z,7.30
2018-04-15T04:52:35.608Z,7.30
2018-04-15T04:55:03.939Z,7.40
2018-04-15T04:57:31.556Z,7.40
2018-04-15T04:59:59.085Z,7.40
2018-04-15T05:02:26.626Z,7.20
2018-04-15T05:04:54.172Z,7.10
2018-04-15T05:07:22.291Z,7.10
2018-04-15T05:09:49.803Z,7.00
2018-04-15T05:12:17.389Z,7.10
2018-04-15T05:14:45.685Z,7.30
2018-04-15T05:17:14.615Z,7.30
2018-04-15T05:19:42.237Z,7.30
2018-04-15T05:22:09.758Z,7.40
2018-04-15T05:24:37.278Z,7.50
2018-04-15T05:27:04.838Z,7.60
2018-04-15T05:29:32.368Z,7.60
2018-04-15T05:32:00.656Z,7.80
2018-04-15T05:34:28.258Z,7.80
2018-04-15T05:36:55.826Z,7.90
2018-04-15T05:39:23.607Z,8.00
2018-04-15T05:41:51.883Z,8.10
2018-04-15T05:44:20.205Z,8.20
2018-04-15T05:46:47.726Z,8.20
2018-04-15T05:49:17.352Z,8.40
2018-04-15T05:51:45.664Z,8.50
2018-04-15T05:54:15.469Z,8.60
2018-04-15T05:56:43.027Z,8.60
2018-04-15T05:59:10.547Z,8.60
2018-04-15T06:01:38.062Z,8.70
2018-04-15T06:04:06.118Z,8.70
2018-04-15T06:06:34.480Z,8.90
2018-04-15T06:09:02.698Z,8.90
2018-04-15T06:11:31.065Z,9.00
2018-04-15T06:13:58.575Z,8.90
2018-04-15T06:16:26.104Z,9.00
2018-04-15T06:18:53.661Z,9.30
2018-04-15T06:21:21.210Z,9.50
2018-04-15T06:23:48.709Z,9.50
2018-04-15T06:26:18.032Z,9.60
2018-04-15T06:28:45.543Z,9.60
2018-04-15T06:31:24.375Z,9.80
2018-04-15T06:38:37.447Z,10.30
2018-04-15T06:41:04.971Z,10.40
2018-04-15T06:43:33.258Z,10.70
2018-04-15T06:46:02.303Z,11.00
2018-04-15T06:48:29.836Z,10.90
2018-04-15T06:50:57.397Z,11.20
2018-04-15T06:53:24.971Z,11.50
2018-04-15T06:55:52.486Z,11.70
2018-04-15T06:58:20.042Z,12.00
2018-04-15T07:00:47.602Z,12.20
2018-04-15T07:03:17.335Z,12.70
2018-04-15T07:05:44.952Z,12.70
2018-04-15T07:08:12.987Z,13.50
2018-04-15T07:10:41.487Z,15.40
2018-04-15T07:13:09.003Z,16.60
2018-04-15T07:15:36.648Z,17.00
2018-04-15T07:18:04.267Z,17.10
2018-04-15T07:20:31.808Z,16.70
2018-04-15T07:22:59.361Z,16.80
2018-04-15T07:25:26.880Z,18.00
2018-04-15T07:27:54.399Z,18.60
2018-04-15T07:30:22.327Z,18.60
2018-04-15T07:32:49.861Z,18.00
2018-04-15T07:35:34.051Z,21.10
2018-04-15T07:41:30.087Z,23.50
2018-04-15T07:43:57.670Z,24.40
2018-04-15T07:46:26.583Z,25.10
2018-04-15T07:48:55.520Z,26.40
2018-04-15T07:51:24.158Z,27.80
2018-04-15T07:53:51.662Z,27.70
2018-04-15T07:56:19.272Z,26.90
2018-04-15T07:58:46.847Z,26.30
2018-04-15T08:01:16.275Z,24.80
2018-04-15T08:03:43.827Z,24.80
2018-04-15T08:06:12.147Z,26.30
2018-04-15T08:08:39.698Z,26.30
2018-04-15T08:11:08.052Z,26.70
2018-04-15T08:13:36.378Z,27.60
2018-04-15T08:16:03.959Z,27.50
2018-04-15T08:18:31.543Z,27.80
2018-04-15T08:20:59.088Z,28.40
2018-04-15T08:23:26.606Z,28.70
2018-04-15T08:25:54.140Z,28.70
2018-04-15T08:28:21.679Z,28.00
2018-04-15T08:30:50.083Z,26.90
2018-04-15T08:33:23.509Z,26.90
2018-04-15T08:35:51.039Z,26.80
2018-04-15T08:38:18.560Z,26.10
2018-04-15T08:40:46.863Z,26.20
2018-04-15T08:43:15.704Z,26.20
2018-04-15T08:45:43.155Z,25.60
2018-04-15T08:48:10.694Z,26.20
2018-04-15T08:50:38.242Z,26.80
2018-04-15T08:53:05.767Z,26.40
2018-04-15T08:55:34.596Z,25.00
2018-04-15T08:58:02.112Z,25.00
2018-04-15T09:00:29.652Z,24.30
2018-04-15T09:02:57.966Z,23.80
2018-04-15T09:05:25.483Z,23.70
2018-04-15T09:07:53.013Z,24.30
2018-04-15T09:10:20.842Z,25.70
2018-04-15T09:12:50.560Z,26.40
2018-04-15T09:15:18.075Z,26.40
2018-04-15T09:17:46.129Z,26.80
2018-04-15T09:20:13.777Z,26.80
2018-04-15T09:22:42.291Z,27.30
2018-04-15T09:25:10.109Z,28.20
2018-04-15T09:27:38.458Z,32.20
2018-04-15T09:30:06.151Z,32.10
2018-04-15T09:32:33.737Z,32.50
2018-04-15T09:35:02.064Z,32.30
2018-04-15T09:37:29.657Z,32.30
2018-04-15T09:39:58.138Z,31.10
2018-04-15T09:42:25.666Z,31.00
2018-04-15T09:44:53.209Z,30.40
2018-04-15T09:47:20.768Z,29.40
2018-04-15T09:49:48.382Z,27.90
2018-04-15T09:52:16.707Z,26.80
2018-04-15T09:54:44.327Z,25.50
2018-04-15T09:57:11.900Z,25.30
2018-04-15T09:59:39.663Z,25.40
2018-04-15T10:02:08.239Z,25.30
2018-04-15T10:04:37.028Z,25.50
2018-04-15T10:07:07.024Z,25.50
2018-04-15T10:09:34.615Z,25.60
2018-04-15T10:12:02.210Z,25.80
2018-04-15T10:14:30.630Z,25.60
2018-04-15T10:16:58.276Z,25.30
2018-04-15T10:19:25.797Z,25.20
2018-04-15T10:21:53.550Z,24.90
2018-04-15T10:27:11.595Z,24.50
2018-04-15T10:29:39.302Z,24.40
2018-04-15T10:32:06.923Z,24.70
2018-04-15T10:34:34.569Z,24.90
2018-04-15T10:37:02.343Z,25.10
2018-04-15T10:39:30.141Z,24.70
2018-04-15T10:41:58.159Z,24.30
2018-04-15T10:44:25.807Z,24.00
2018-04-15T10:46:54.292Z,23.90
2018-04-15T10:49:21.849Z,23.70
2018-04-15T10:51:50.274Z,23.00
2018-04-15T10:54:18.577Z,22.90
2018-04-15T10:56:46.189Z,22.90
2018-04-15T10:59:16.379Z,22.40
2018-04-15T11:01:44.043Z,22.40
2018-04-15T11:04:11.772Z,22.20
2018-04-15T11:06:39.958Z,22.10
2018-04-15T11:09:07.900Z,22.00
2018-04-15T11:11:35.597Z,22.00
2018-04-15T11:14:04.033Z,21.90
2018-04-15T11:16:34.892Z,21.90
2018-04-15T11:19:02.653Z,21.90
2018-04-15T11:21:30.258Z,21.90
2018-04-15T11:23:57.812Z,21.70
2018-04-15T11:26:26.303Z,21.80
2018-04-15T11:28:53.941Z,21.80
2018-04-15T11:31:21.524Z,21.70
2018-04-15T11:33:50.057Z,21.60
2018-04-15T11:36:21.150Z,21.60
2018-04-15T11:38:49.465Z,21.80
2018-04-15T11:41:17.059Z,21.70
2018-04-15T11:43:44.658Z,21.80
2018-04-15T11:46:12.421Z,21.60
2018-04-15T11:48:40.251Z,21.40
2018-04-15T11:51:08.318Z,21.60
2018-04-15T11:53:36.026Z,21.60
2018-04-15T11:56:03.570Z,21.60
2018-04-15T11:58:32.176Z,21.40
2018-04-15T12:00:59.711Z,21.40
2018-04-15T12:03:27.320Z,21.40
2018-04-15T12:05:55.044Z,21.60
2018-04-15T12:08:22.758Z,21.90
2018-04-15T12:10:51.275Z,22.10
2018-04-15T12:13:20.297Z,22.20
2018-04-15T12:15:48.072Z,22.20
2018-04-15T12:18:17.461Z,22.30
2018-04-15T12:20:45.928Z,22.30
2018-04-15T12:23:14.623Z,22.20
2018-04-15T12:25:42.220Z,22.40
2018-04-15T12:28:09.896Z,22.60
2018-04-15T12:30:37.458Z,22.40
2018-04-15T12:33:05.077Z,22.40
2018-04-15T12:35:32.783Z,22.40
2018-04-15T12:38:00.313Z,22.60
2018-04-15T12:40:27.854Z,22.60
2018-04-15T12:42:55.445Z,22.60
2018-04-15T12:45:22.984Z,22.80
2018-04-15T12:47:50.574Z,23.00
2018-04-15T12:50:18.155Z,23.00
2018-04-15T12:52:45.694Z,22.90
2018-04-15T12:55:14.935Z,22.70
2018-04-15T12:57:42.538Z,22.70
2018-04-15T13:00:10.093Z,22.80
2018-04-15T13:02:37.723Z,22.90
2018-04-15T13:05:05.316Z,23.00
2018-04-15T13:07:32.854Z,23.10
2018-04-15T13:10:01.188Z,23.00
2018-04-15T13:12:28.840Z,23.00
2018-04-15T13:14:57.248Z,22.70
2018-04-15T13:17:24.925Z,22.70
2018-04-15T13:19:52.910Z,22.60
2018-04-15T13:22:20.485Z,22.60
2018-04-15T13:24:48.890Z,22.70
2018-04-15T13:27:16.491Z,22.70
2018-04-15T13:29:44.099Z,22.70
2018-04-15T13:32:11.624Z,22.60
2018-04-15T13:34:39.193Z,22.60
2018-04-15T13:37:06.713Z,22.50
2018-04-15T13:39:34.264Z,22.40
2018-04-15T13:42:01.831Z,22.60
2018-04-15T13:44:30.134Z,22.80
2018-04-15T13:46:57.706Z,22.80
2018-04-15T13:49:25.278Z,22.70
2018-04-15T13:51:52.805Z,22.70
2018-04-15T13:54:21.146Z,22.20
2018-04-15T13:56:48.721Z,22.20
2018-04-15T13:59:16.411Z,22.00
2018-04-15T14:01:43.946Z,22.00
2018-04-15T14:04:11.733Z,21.90
2018-04-15T14:06:39.280Z,22.00
2018-04-15T14:09:06.870Z,21.90
2018-04-15T14:11:34.442Z,21.90
2018-04-15T14:14:01.971Z,21.70
2018-04-15T14:16:29.515Z,21.50
2018-04-15T14:18:57.091Z,21.30
2018-04-15T14:21:25.512Z,21.10
2018-04-15T14:23:53.094Z,21.00
2018-04-15T14:26:21.638Z,20.90
2018-04-15T14:28:49.156Z,20.90
2018-04-15T14:31:17.790Z,21.00
2018-04-15T14:33:45.342Z,21.10
2018-04-15T14:36:15.324Z,21.20
2018-04-15T14:38:42.877Z,21.20
2018-04-15T14:41:10.588Z,21.10
2018-04-15T14:43:38.117Z,21.00
2018-04-15T14:46:05.643Z,21.10
2018-04-15T14:48:34.163Z,20.90
2018-04-15T14:51:01.698Z,20.90
2018-04-15T14:53:29.289Z,20.90
2018-04-15T14:55:56.839Z,20.90
2018-04-15T14:58:24.370Z,20.90
2018-04-15T15:00:51.905Z,20.70
2018-04-15T15:03:19.487Z,20.60
2018-04-15T15:05:47.048Z,20.40
2018-04-15T15:08:17.167Z,20.20
2018-04-15T15:10:45.075Z,20.20
2018-04-15T15:13:13.544Z,20.20
2018-04-15T15:15:41.179Z,20.20
2018-04-15T15:18:08.747Z,20.10
2018-04-15T15:20:36.350Z,20.10
2018-04-15T15:23:05.864Z,20.00
2018-04-15T15:25:34.195Z,19.70
2018-04-15T15:28:01.838Z,19.70
2018-04-15T15:30:29.373Z,19.60
2018-04-15T15:32:56.957Z,19.60
2018-04-15T15:35:24.486Z,19.50
2018-04-15T15:37:52.062Z,19.50
2018-04-15T15:40:22.246Z,19.60
2018-04-15T15:42:49.823Z,19.70
2018-04-15T15:45:17.355Z,19.60
2018-04-15T15:47:44.910Z,19.60
2018-04-15T15:50:12.498Z,19.60
2018-04-15T15:52:40.113Z,19.60
2018-04-15T15:55:07.910Z,19.70
2018-04-15T15:57:35.467Z,19.70
2018-04-15T16:00:03.009Z,19.70
2018-04-15T16:02:30.630Z,19.70
2018-04-15T16:04:58.211Z,19.60
2018-04-15T16:07:25.859Z,19.50
2018-04-15T16:09:53.441Z,19.40
2018-04-15T16:12:20.994Z,19.30
2018-04-15T16:14:48.553Z,19.30
2018-04-15T16:17:17.331Z,19.30
2018-04-15T16:19:44.942Z,19.20
2018-04-15T16:22:12.482Z,19.10
2018-04-15T16:24:40.692Z,19.10
2018-04-15T16:27:08.230Z,19.10
2018-04-15T16:29:35.761Z,19.00
2018-04-15T16:32:03.453Z,19.00
2018-04-15T16:34:31.015Z,18.90
2018-04-15T16:36:58.572Z,18.80
2018-04-15T16:39:26.831Z,18.80
2018-04-15T16:41:54.457Z,18.70
2018-04-15T16:47:03.535Z,18.50
2018-04-15T16:49:31.095Z,18.50
2018-04-15T16:52:00.767Z,18.50
2018-04-15T16:54:28.405Z,18.50
2018-04-15T16:56:55.947Z,18.50
2018-04-15T16:59:23.475Z,18.40
2018-04-15T17:01:51.075Z,18.30
2018-04-15T17:04:18.628Z,18.40
2018-04-15T17:06:46.166Z,18.40
2018-04-15T17:09:16.463Z,18.30
2018-04-15T17:11:44.050Z,18.30
2018-04-15T17:14:11.609Z,18.30
2018-04-15T17:16:39.714Z,18.30
2018-04-15T17:19:08.043Z,18.20
2018-04-15T17:21:36.362Z,18.20
2018-04-15T17:24:04.678Z,18.10
2018-04-15T17:26:32.394Z,18.10
2018-04-15T17:28:59.915Z,18.10
2018-04-15T17:31:27.511Z,18.00
2018-04-15T17:33:55.048Z,17.90
2018-04-15T17:36:22.627Z,17.80
2018-04-15T17:38:51.680Z,17.70
2018-04-15T17:41:19.219Z,17.70
2018-04-15T17:43:46.909Z,17.70
2018-04-15T17:46:26.123Z,17.80
2018-04-15T17:51:30.051Z,17.70
2018-04-15T17:53:57.623Z,17.70
2018-04-15T17:56:25.170Z,17.70
2018-04-15T18:01:28.887Z,17.50
2018-04-15T18:03:56.490Z,17.50
2018-04-15T18:06:34.101Z,17.50
2018-04-15T18:09:01.829Z,17.60
2018-04-15T18:11:29.387Z,17.60
2018-04-15T18:14:06.494Z,17.50
2018-04-15T18:16:36.982Z,17.50
2018-04-15T18:19:04.515Z,17.50
2018-04-15T18:21:32.088Z,17.60
2018-04-15T18:24:05.550Z,17.50
2018-04-15T18:26:34.362Z,17.50
2018-04-15T18:29:01.974Z,17.50
2018-04-15T18:31:29.525Z,17.40
2018-04-15T18:33:57.147Z,17.30
2018-04-15T18:36:25.109Z,17.30
2018-04-15T18:38:52.676Z,17.30
2018-04-15T18:41:20.480Z,17.10
2018-04-15T18:43:49.168Z,17.10
2018-04-15T18:46:17.867Z,17.00
2018-04-15T18:48:45.541Z,17.00
2018-04-15T18:51:24.836Z,16.90
2018-04-15T18:56:26.685Z,16.90
2018-04-15T18:58:54.248Z,16.70
2018-04-15T19:01:21.770Z,16.60
2018-04-15T19:03:50.075Z,16.50
2018-04-15T19:06:17.615Z,16.50
2018-04-15T19:08:45.987Z,16.40
2018-04-15T19:11:14.726Z,16.40
2018-04-15T19:13:42.253Z,16.40
2018-04-15T19:16:09.822Z,16.40
2018-04-15T19:18:37.429Z,16.40
2018-04-15T19:21:04.993Z,16.40
2018-04-15T19:23:32.562Z,16.40
2018-04-15T19:26:00.204Z,16.40
2018-04-15T19:28:28.320Z,16.40
2018-04-15T19:33:29.808Z,16.40
2018-04-15T19:35:57.335Z,16.40
2018-04-15T19:38:24.929Z,16.30
2018-04-15T19:40:52.910Z,16.20
2018-04-15T19:43:20.476Z,16.20
2018-04-15T19:45:48.807Z,16.20
2018-04-15T19:48:16.462Z,16.20
2018-04-15T19:50:44.760Z,16.20
2018-04-15T19:53:12.371Z,16.20
2018-04-15T19:55:39.968Z,16.20
2018-04-15T19:58:07.506Z,16.20
2018-04-15T20:00:35.191Z,16.20
2018-04-15T20:03:02.998Z,16.20
2018-04-15T20:05:30.582Z,16.10
2018-04-15T20:07:58.193Z,16.10
2018-04-15T20:10:25.775Z,16.20
2018-04-15T20:12:53.310Z,16.20
2018-04-15T20:15:20.849Z,16.20
2018-04-15T20:17:48.447Z,16.10
2018-04-15T20:20:17.194Z,16.00
2018-04-15T20:22:44.727Z,15.90
2018-04-15T20:25:12.499Z,16.00
2018-04-15T20:27:40.045Z,15.90
2018-04-15T20:30:08.534Z,15.90
2018-04-15T20:32:36.851Z,15.60
2018-04-15T20:35:04.839Z,15.60
2018-04-15T20:37:32.362Z,15.60
2018-04-15T20:40:00.018Z,15.60
2018-04-15T20:42:27.559Z,15.70
2018-04-15T20:44:55.128Z,15.70
2018-04-15T20:47:23.222Z,15.60
2018-04-15T20:49:50.755Z,15.60
2018-04-15T20:52:20.938Z,15.50
2018-04-15T20:54:48.497Z,15.50
2018-04-15T20:57:16.533Z,15.40
2018-04-15T20:59:44.077Z,15.30
2018-04-15T21:02:11.633Z,15.30
2018-04-15T21:04:39.179Z,15.20
2018-04-15T21:07:06.710Z,15.20
2018-04-15T21:09:34.668Z,15.10
2018-04-15T21:12:02.222Z,15.10
2018-04-15T21:14:29.754Z,15.00
2018-04-15T21:16:58.103Z,15.00
2018-04-15T21:19:25.648Z,15.00
2018-04-15T21:21:53.950Z,14.90
2018-04-15T21:24:21.726Z,14.90
2018-04-15T21:26:49.271Z,14.80
2018-04-15T21:29:18.020Z,14.70
2018-04-15T21:31:45.871Z,14.70
2018-04-15T21:34:26.315Z,14.60
2018-04-15T21:39:40.764Z,14.70
2018-04-15T21:42:08.364Z,14.60
2018-04-15T21:44:36.886Z,14.50
2018-04-15T21:47:04.487Z,14.50
2018-04-15T21:49:32.059Z,14.50
2018-04-15T21:51:59.614Z,14.50
2018-04-15T21:54:27.195Z,14.60
2018-04-15T21:56:54.731Z,14.70
2018-04-15T21:59:22.273Z,14.70
2018-04-15T22:01:49.859Z,14.80
2018-04-15T22:04:17.494Z,14.80
2018-04-15T22:06:45.063Z,14.80
2018-04-15T22:09:14.215Z,14.80
2018-04-15T22:11:53.572Z,14.80
2018-04-15T22:14:22.528Z,14.90
2018-04-15T22:16:50.967Z,14.80
2018-04-15T22:19:18.581Z,14.90
2018-04-15T22:21:46.145Z,14.90
2018-04-15T22:24:25.307Z,14.90
2018-04-15T22:30:00.991Z,14.80
2018-04-15T22:32:29.009Z,14.70
2018-04-15T22:34:56.536Z,14.60
2018-04-15T22:37:24.188Z,14.70
2018-04-15T22:39:51.798Z,14.60
2018-04-15T22:42:19.323Z,14.60
2018-04-15T22:44:46.911Z,14.50
2018-04-15T22:47:26.809Z,14.40
2018-04-15T22:55:55.843Z,14.40
2018-04-15T22:58:23.359Z,14.20
2018-04-15T23:00:50.881Z,14.20
2018-04-15T23:03:18.519Z,14.10
2018-04-15T23:05:46.039Z,14.20
2018-04-15T23:08:14.703Z,14.20
2018-04-15T23:10:42.304Z,14.20
2018-04-15T23:13:09.841Z,14.20
2018-04-15T23:15:37.395Z,14.10
2018-04-15T23:18:05.821Z,14.10
2018-04-15T23:20:33.360Z,14.10
2018-04-15T23:23:01.065Z,14.00
2018-04-15T23:25:28.620Z,14.10
2018-04-15T23:27:56.222Z,14.00
2018-04-15T23:30:23.800Z,14.00
2018-04-15T23:32:52.075Z,14.00
2018-04-15T23:35:19.611Z,14.00
2018-04-15T23:37:47.411Z,13.90
2018-04-15T23:40:26.851Z,13.90
2018-04-15T23:45:43.485Z,13.90
2018-04-15T23:48:11.771Z,13.90
2018-04-15T23:50:39.307Z,13.80
2018-04-15T23:53:06.863Z,13.90
2018-04-15T23:55:34.385Z,14.00
2018-04-15T23:58:02.677Z,14.10
